Time;durP1;ratioP1;P1;durP2;ratioP2;P2;SDS_P1;SDS_P2;PMS_P1;PMS_P2;Temp;Humidity;BMP_temperature;BMP_pressure;BME280_temperature;BME280_humidity;BME280_pressure;Samples;Min_cycle;Max_cycle;Signal;HPM_P1;HPM_P2
2022/03/27 00:00:16;;;;;;;14.88;13.38;;;6.60;99.90;;;;;;4978706;28;88235;-35
2022/03/27 00:02:42;;;;;;;16.05;14.30;;;6.60;99.90;;;;;;4978513;28;90372;-35
2022/03/27 00:05:12;;;;;;;16.08;12.80;;;6.60;99.90;;;;;;4978017;28;90407;-34
2022/03/27 00:07:38;;;;;;;16.45;14.25;;;6.70;99.90;;;;;;4978199;28;90384;-34
2022/03/27 00:10:04;;;;;;;18.42;13.25;;;6.70;99.90;;;;;;4978971;28;88613;-33
2022/03/27 00:12:31;;;;;;;17.13;14.55;;;6.70;99.90;;;;;;4978422;28;91565;-35
2022/03/27 00:14:56;;;;;;;17.35;13.60;;;6.70;99.90;;;;;;4978558;28;89843;-38
2022/03/27 00:17:33;;;;;;;19.65;13.77;;;6.70;99.90;;;;;;4984658;28;88544;-39
2022/03/27 00:20:01;;;;;;;19.23;14.95;;;6.70;99.90;;;;;;4979981;28;89603;-36
2022/03/27 00:22:27;;;;;;;17.05;14.50;;;6.70;99.90;;;;;;4981622;28;89757;-35
2022/03/27 00:24:52;;;;;;;20.83;14.18;;;6.80;99.90;;;;;;4981738;28;89607;-35
2022/03/27 00:27:18;;;;;;;17.75;13.57;;;6.80;99.90;;;;;;4981799;28;89645;-35
2022/03/27 00:29:43;;;;;;;22.90;15.10;;;6.80;99.90;;;;;;4981942;28;90021;-36
2022/03/27 00:32:09;;;;;;;22.48;14.80;;;6.80;99.90;;;;;;4982187;28;90184;-34
2022/03/27 00:34:34;;;;;;;16.90;15.02;;;6.80;99.90;;;;;;4981415;28;88559;-38
2022/03/27 00:37:00;;;;;;;15.90;13.68;;;6.80;99.90;;;;;;4982155;28;89591;-35
2022/03/27 00:39:26;;;;;;;18.58;15.07;;;6.80;99.90;;;;;;4981364;28;88734;-34
2022/03/27 00:41:51;;;;;;;20.10;14.10;;;6.70;99.90;;;;;;4982723;28;90356;-34
2022/03/27 00:44:17;;;;;;;16.13;12.85;;;6.60;99.90;;;;;;4981276;28;89721;-33
2022/03/27 00:46:43;;;;;;;20.05;15.50;;;6.60;99.90;;;;;;4981662;28;89674;-34
2022/03/27 00:49:09;;;;;;;18.67;14.63;;;6.70;99.90;;;;;;4981802;28;88024;-33
2022/03/27 00:51:34;;;;;;;17.30;14.43;;;6.60;99.90;;;;;;4980751;28;90292;-36
2022/03/27 00:54:00;;;;;;;21.55;14.40;;;6.60;99.90;;;;;;4981814;28;90793;-37
2022/03/27 00:56:26;;;;;;;20.35;16.20;;;6.60;99.90;;;;;;4980933;28;90061;-37
2022/03/27 00:58:51;;;;;;;18.23;14.27;;;6.60;99.90;;;;;;4981439;28;88251;-35
2022/03/27 01:01:23;;;;;;;19.40;16.00;;;6.60;99.90;;;;;;4963311;28;91016;-33
2022/03/27 01:03:53;;;;;;;17.23;14.43;;;6.60;99.90;;;;;;4981239;28;89759;-36
2022/03/27 01:06:32;;;;;;;20.80;16.17;;;6.50;99.90;;;;;;4981321;28;90094;-33
2022/03/27 01:11:42;;;;;;;18.17;16.02;;;6.40;99.90;;;;;;4980821;28;90471;-34
2022/03/27 01:14:09;;;;;;;22.40;16.85;;;6.30;99.90;;;;;;4981203;28;89778;-35
2022/03/27 01:16:47;;;;;;;24.98;18.40;;;6.30;99.90;;;;;;4980646;28;90947;-38
2022/03/27 01:19:14;;;;;;;26.58;18.95;;;6.20;99.90;;;;;;4980226;28;88735;-34
2022/03/27 01:21:45;;;;;;;22.77;18.17;;;6.10;99.90;;;;;;4980413;28;90709;-37
2022/03/27 01:24:13;;;;;;;24.05;18.08;;;6.10;99.90;;;;;;4980684;28;90094;-35
2022/03/27 01:26:39;;;;;;;24.48;16.60;;;6.00;99.90;;;;;;4979883;28;89727;-34
2022/03/27 01:29:06;;;;;;;23.42;18.48;;;6.00;99.90;;;;;;4981336;28;89449;-38
2022/03/27 01:31:33;;;;;;;25.05;17.60;;;6.00;99.90;;;;;;4980879;28;90159;-37
2022/03/27 01:33:59;;;;;;;27.52;18.10;;;5.90;99.90;;;;;;4980816;28;89781;-34
2022/03/27 01:36:28;;;;;;;28.63;17.58;;;5.80;99.90;;;;;;4981104;28;89638;-37
2022/03/27 01:38:56;;;;;;;25.48;17.35;;;5.80;99.90;;;;;;4981163;28;88190;-36
2022/03/27 01:41:22;;;;;;;25.20;18.15;;;5.80;99.90;;;;;;4980745;28;91725;-35
2022/03/27 01:43:48;;;;;;;24.77;17.73;;;5.80;99.90;;;;;;4979824;28;89773;-36
2022/03/27 01:46:14;;;;;;;23.00;16.60;;;5.60;99.90;;;;;;4981051;28;90678;-35
2022/03/27 01:48:39;;;;;;;25.90;19.05;;;5.70;99.90;;;;;;4980442;28;88293;-35
2022/03/27 01:51:05;;;;;;;30.27;20.77;;;5.60;99.90;;;;;;4980727;28;90490;-37
2022/03/27 01:53:31;;;;;;;29.80;20.13;;;5.60;99.90;;;;;;4980841;28;89797;-33
2022/03/27 01:55:57;;;;;;;24.02;18.23;;;5.50;99.90;;;;;;4980031;28;89785;-33
2022/03/27 01:58:23;;;;;;;24.45;17.05;;;5.50;99.90;;;;;;4980737;28;88202;-34
2022/03/27 02:00:49;;;;;;;27.23;19.17;;;5.50;99.90;;;;;;4980197;28;90214;-34
2022/03/27 02:03:15;;;;;;;27.38;20.38;;;5.40;99.90;;;;;;4980493;28;89677;-34
2022/03/27 02:05:40;;;;;;;29.33;19.70;;;5.40;99.90;;;;;;4980284;28;89357;-35
2022/03/27 02:08:07;;;;;;;27.35;19.90;;;5.30;99.90;;;;;;4979398;28;89092;-34
2022/03/27 02:10:33;;;;;;;27.88;19.83;;;5.30;99.90;;;;;;4980603;28;90394;-36
2022/03/27 02:12:59;;;;;;;26.75;19.95;;;5.20;99.90;;;;;;4979794;28;88712;-35
2022/03/27 02:15:25;;;;;;;21.90;18.33;;;5.20;99.90;;;;;;4979998;28;88762;-38
2022/03/27 02:17:51;;;;;;;28.65;18.70;;;5.20;99.90;;;;;;4980294;28;90022;-35
2022/03/27 02:20:16;;;;;;;24.60;19.25;;;5.10;99.90;;;;;;4980070;28;90875;-35
2022/03/27 02:22:42;;;;;;;28.05;19.90;;;5.10;99.90;;;;;;4980227;28;90708;-34
2022/03/27 02:25:09;;;;;;;24.85;17.65;;;5.10;99.90;;;;;;4979764;28;89441;-36
2022/03/27 02:27:35;;;;;;;28.40;19.23;;;5.10;99.90;;;;;;4979492;28;88188;-37
2022/03/27 02:30:00;;;;;;;24.27;18.02;;;5.00;99.90;;;;;;4980142;28;90271;-34
2022/03/27 02:32:26;;;;;;;26.60;17.92;;;5.00;99.90;;;;;;4979423;28;90796;-34
2022/03/27 02:34:51;;;;;;;27.60;18.10;;;4.90;99.90;;;;;;4979965;28;90707;-35
2022/03/27 02:37:17;;;;;;;24.95;17.25;;;4.90;99.90;;;;;;4978990;28;88809;-34
2022/03/27 02:39:45;;;;;;;23.58;18.17;;;4.90;99.90;;;;;;4979950;28;89922;-34
2022/03/27 02:42:11;;;;;;;;;;;4.80;99.90;;;;;;4981031;28;89653;-34
2022/03/27 02:44:37;;;;;;;26.70;19.55;;;4.90;99.90;;;;;;4981631;28;88800;-33
2022/03/27 02:47:04;;;;;;;24.05;18.42;;;4.80;99.90;;;;;;4980300;28;89245;-36
2022/03/27 02:49:30;;;;;;;25.77;18.52;;;4.80;99.90;;;;;;4979895;28;90244;-35
2022/03/27 02:51:56;;;;;;;25.95;17.38;;;4.80;99.90;;;;;;4979270;28;91262;-37
2022/03/27 02:54:21;;;;;;;21.63;15.05;;;4.80;99.90;;;;;;4979724;28;89511;-34
2022/03/27 02:56:47;;;;;;;22.23;16.52;;;4.80;99.90;;;;;;4979646;28;88136;-34
2022/03/27 02:59:13;;;;;;;22.27;15.20;;;4.80;99.90;;;;;;4979093;28;90228;-34
2022/03/27 03:01:38;;;;;;;28.23;17.98;;;4.70;99.90;;;;;;4979386;28;89906;-34
2022/03/27 03:04:04;;;;;;;23.23;14.65;;;4.70;99.90;;;;;;4979478;28;89793;-34
2022/03/27 03:06:31;;;;;;;19.65;14.57;;;4.70;99.90;;;;;;4979877;28;88959;-33
2022/03/27 03:08:57;;;;;;;24.85;16.27;;;4.70;99.90;;;;;;4978709;28;90518;-35
2022/03/27 03:11:23;;;;;;;25.75;15.18;;;4.70;99.90;;;;;;4979196;28;88585;-33
2022/03/27 03:13:49;;;;;;;22.25;16.20;;;4.70;99.90;;;;;;4979687;28;90036;-33
2022/03/27 03:16:16;;;;;;;20.52;14.95;;;4.70;99.90;;;;;;4979832;28;88412;-37
2022/03/27 03:18:42;;;;;;;21.45;15.52;;;4.60;99.90;;;;;;4978333;28;89347;-34
2022/03/27 03:21:08;;;;;;;20.73;13.95;;;4.60;99.90;;;;;;4978862;28;90020;-34
2022/03/27 03:23:34;;;;;;;23.17;15.40;;;4.60;99.90;;;;;;4979139;28;92096;-35
2022/03/27 03:26:00;;;;;;;24.13;14.65;;;4.50;99.90;;;;;;4979509;28;88787;-33
2022/03/27 03:28:26;;;;;;;20.83;14.40;;;4.60;99.90;;;;;;4979338;28;90486;-34
2022/03/27 03:30:51;;;;;;;25.50;15.40;;;4.60;99.90;;;;;;4978240;28;89642;-34
2022/03/27 03:33:18;;;;;;;21.50;14.15;;;4.50;99.90;;;;;;4979024;28;89605;-37
2022/03/27 03:35:44;;;;;;;23.15;13.68;;;4.60;99.90;;;;;;4978642;28;89542;-35
2022/03/27 03:38:09;;;;;;;22.23;13.80;;;4.70;99.90;;;;;;4978686;28;92503;-33
2022/03/27 03:40:35;;;;;;;19.50;14.02;;;4.70;99.90;;;;;;4979225;28;89745;-36
2022/03/27 03:43:01;;;;;;;22.92;13.63;;;4.70;99.90;;;;;;4978489;28;89274;-33
2022/03/27 03:45:27;;;;;;;22.17;13.73;;;4.70;99.90;;;;;;4978738;28;90067;-37
2022/03/27 03:47:52;;;;;;;25.70;15.73;;;4.60;99.90;;;;;;4978083;28;92317;-34
2022/03/27 03:50:18;;;;;;;27.92;15.27;;;4.60;99.90;;;;;;4978764;28;89584;-36
2022/03/27 03:52:43;;;;;;;24.00;15.77;;;4.50;99.90;;;;;;4978877;28;90720;-34
2022/03/27 03:55:09;;;;;;;22.00;15.77;;;4.50;99.90;;;;;;4978655;28;89146;-35
2022/03/27 03:57:35;;;;;;;19.77;13.63;;;4.50;99.90;;;;;;4978383;28;89201;-36
2022/03/27 04:00:01;;;;;;;21.73;14.45;;;4.50;99.90;;;;;;4978773;28;89329;-34
2022/03/27 04:02:26;;;;;;;20.65;14.82;;;4.50;99.90;;;;;;4979026;28;89005;-34
2022/03/27 04:04:52;;;;;;;28.48;16.33;;;4.70;99.90;;;;;;4978525;28;89317;-34
2022/03/27 04:07:17;;;;;;;24.50;14.57;;;4.70;99.90;;;;;;4978555;28;90423;-35
2022/03/27 04:09:43;;;;;;;21.95;16.35;;;4.70;99.90;;;;;;4977793;28;91387;-36
2022/03/27 04:12:09;;;;;;;23.42;13.98;;;4.70;99.90;;;;;;4978121;28;90519;-32
2022/03/27 04:14:36;;;;;;;19.23;14.30;;;4.80;99.90;;;;;;4978849;28;88795;-36
2022/03/27 04:17:02;;;;;;;19.20;13.18;;;4.80;99.90;;;;;;4978509;28;90237;-34
2022/03/27 04:19:29;;;;;;;18.77;14.57;;;4.80;99.90;;;;;;4977841;28;89891;-34
2022/03/27 04:21:55;;;;;;;23.67;14.85;;;4.90;99.90;;;;;;4978282;28;89868;-37
2022/03/27 04:24:21;;;;;;;20.50;15.20;;;4.90;99.90;;;;;;4978510;28;88522;-34
2022/03/27 04:26:46;;;;;;;21.17;13.88;;;4.90;99.90;;;;;;4978187;28;92859;-36
2022/03/27 04:29:12;;;;;;;21.98;14.52;;;4.90;99.90;;;;;;4978716;28;90372;-35
2022/03/27 04:31:41;;;;;;;28.77;14.65;;;5.00;99.90;;;;;;4977998;28;89071;-32
2022/03/27 04:34:08;;;;;;;28.20;12.48;;;5.00;99.90;;;;;;4977775;28;90356;-35
2022/03/27 04:36:34;;;;;;;26.30;14.32;;;5.00;99.90;;;;;;4978027;28;90119;-38
2022/03/27 04:38:59;;;;;;;22.77;14.65;;;5.00;99.90;;;;;;4977650;28;89959;-36
2022/03/27 04:41:25;;;;;;;25.38;12.20;;;5.00;99.90;;;;;;4978663;28;90356;-35
2022/03/27 04:43:50;;;;;;;30.00;11.77;;;5.00;99.90;;;;;;4978044;28;87962;-35
2022/03/27 04:46:16;;;;;;;24.15;10.98;;;5.10;99.90;;;;;;4977934;28;91089;-34
2022/03/27 04:48:44;;;;;;;19.13;11.88;;;5.10;99.90;;;;;;4978198;28;89767;-33
2022/03/27 04:51:10;;;;;;;24.20;10.65;;;5.10;99.90;;;;;;4978773;28;89496;-33
2022/03/27 04:53:35;;;;;;;19.75;10.88;;;5.10;99.90;;;;;;4977476;28;88856;-36
2022/03/27 04:56:01;;;;;;;16.48;9.90;;;5.10;99.90;;;;;;4978078;28;90168;-38
2022/03/27 04:58:27;;;;;;;28.08;11.45;;;5.10;99.90;;;;;;4977875;28;90466;-36
2022/03/27 05:00:52;;;;;;;19.10;10.55;;;5.10;99.90;;;;;;4978343;28;90471;-35
2022/03/27 05:03:18;;;;;;;20.15;11.55;;;5.20;99.90;;;;;;4982014;28;88482;-36
2022/03/27 05:05:43;;;;;;;37.50;11.38;;;5.10;99.90;;;;;;4980658;28;90682;-36
2022/03/27 05:08:10;;;;;;;25.17;10.75;;;5.10;99.90;;;;;;4981175;28;90165;-33
2022/03/27 05:10:36;;;;;;;22.42;10.02;;;5.10;99.90;;;;;;4981030;28;89896;-33
2022/03/27 05:13:02;;;;;;;25.00;11.38;;;5.10;99.90;;;;;;4981580;28;89753;-33
2022/03/27 05:15:27;;;;;;;25.33;11.60;;;5.00;99.90;;;;;;4980919;28;90269;-35
2022/03/27 05:17:56;;;;;;;21.27;10.85;;;5.00;99.90;;;;;;4979970;28;90229;-37
2022/03/27 05:20:27;;;;;;;24.80;11.13;;;5.10;99.90;;;;;;4981050;28;89870;-32
2022/03/27 05:22:54;;;;;;;27.98;10.95;;;5.10;99.90;;;;;;4980437;28;89894;-39
2022/03/27 05:25:20;;;;;;;23.08;10.60;;;5.10;99.90;;;;;;4981147;28;90446;-35
2022/03/27 05:27:50;;;;;;;26.77;11.43;;;5.20;99.90;;;;;;4980802;28;89859;-33
2022/03/27 05:30:21;;;;;;;25.48;11.70;;;5.10;99.90;;;;;;4980636;28;89558;-37
2022/03/27 05:32:47;;;;;;;19.52;10.27;;;5.10;99.90;;;;;;4980843;28;88428;-34
2022/03/27 05:35:14;;;;;;;34.30;11.23;;;5.20;99.90;;;;;;4980817;28;91481;-33
2022/03/27 05:37:42;;;;;;;28.63;11.35;;;5.20;99.90;;;;;;4980775;28;89621;-33
2022/03/27 05:40:10;;;;;;;26.67;11.13;;;5.20;99.90;;;;;;4981080;28;89425;-36
2022/03/27 05:42:36;;;;;;;32.33;11.45;;;5.30;99.90;;;;;;4980928;28;88935;-35
2022/03/27 05:45:03;;;;;;;33.42;12.02;;;5.30;99.90;;;;;;4979835;28;90448;-34
2022/03/27 05:47:29;;;;;;;29.55;11.75;;;5.30;99.90;;;;;;4980410;28;91263;-38
2022/03/27 05:49:56;;;;;;;35.28;11.23;;;5.40;99.90;;;;;;4980753;28;89897;-33
2022/03/27 05:52:22;;;;;;;35.10;12.63;;;5.40;99.90;;;;;;4980496;28;89894;-33
2022/03/27 05:54:49;;;;;;;37.92;12.25;;;5.40;99.90;;;;;;4980215;28;90072;-34
2022/03/27 05:57:14;;;;;;;42.33;14.02;;;5.50;99.90;;;;;;4980861;28;89961;-35
2022/03/27 05:59:40;;;;;;;31.70;12.38;;;5.50;99.90;;;;;;4980084;28;88376;-36
2022/03/27 06:02:06;;;;;;;38.67;13.02;;;5.60;99.90;;;;;;4981021;28;88411;-36
2022/03/27 06:04:31;;;;;;;43.83;13.27;;;5.70;99.90;;;;;;4980409;28;90867;-34
2022/03/27 06:06:57;;;;;;;41.13;13.48;;;5.70;99.90;;;;;;4979945;28;89787;-34
2022/03/27 06:09:22;;;;;;;39.25;13.52;;;5.70;99.90;;;;;;4980163;28;89536;-36
2022/03/27 06:11:49;;;;;;;35.15;14.32;;;5.70;99.90;;;;;;4979826;28;89498;-35
2022/03/27 06:14:14;;;;;;;41.35;14.18;;;5.80;99.90;;;;;;4980585;28;90072;-33
2022/03/27 06:16:40;;;;;;;47.40;15.50;;;5.80;99.90;;;;;;4979944;28;90998;-36
2022/03/27 06:19:06;;;;;;;37.53;13.50;;;5.90;99.90;;;;;;4979625;28;89794;-35
2022/03/27 06:21:31;;;;;;;44.20;14.77;;;5.90;99.90;;;;;;4980191;28;89052;-33
2022/03/27 06:23:57;;;;;;;34.88;15.77;;;6.00;99.90;;;;;;4980162;28;92122;-37
2022/03/27 06:26:23;;;;;;;49.75;16.80;;;6.00;99.90;;;;;;4980609;28;91280;-34
2022/03/27 06:28:49;;;;;;;53.97;15.27;;;6.10;99.90;;;;;;4979331;28;91871;-33
2022/03/27 06:31:14;;;;;;;47.88;15.05;;;6.10;99.90;;;;;;4980539;28;88304;-38
2022/03/27 06:33:40;;;;;;;34.83;14.75;;;6.10;99.90;;;;;;4979167;28;90137;-38
2022/03/27 06:36:06;;;;;;;48.58;17.17;;;6.20;99.90;;;;;;4979975;28;90573;-34
2022/03/27 06:38:31;;;;;;;37.75;17.98;;;6.30;99.90;;;;;;4980067;28;90036;-34
2022/03/27 06:40:57;;;;;;;50.50;18.67;;;6.30;99.90;;;;;;4979473;28;90491;-33
2022/03/27 06:43:23;;;;;;;43.53;19.77;;;6.30;99.90;;;;;;4962413;28;90799;-32
2022/03/27 06:45:50;;;;;;;46.83;18.23;;;6.40;99.90;;;;;;4979048;28;89423;-34
2022/03/27 06:48:16;;;;;;;53.10;20.48;;;6.40;99.90;;;;;;4980040;28;90234;-33
2022/03/27 06:50:44;;;;;;;53.20;20.77;;;6.40;99.90;;;;;;4979734;28;89253;-36
2022/03/27 06:53:11;;;;;;;49.08;21.83;;;6.40;99.90;;;;;;4980079;28;90145;-32
2022/03/27 06:55:37;;;;;;;47.78;18.63;;;6.30;99.90;;;;;;4979069;28;90687;-35
2022/03/27 06:58:03;;;;;;;34.70;17.70;;;6.40;99.90;;;;;;4980168;28;89415;-35
2022/03/27 07:03:13;;;;;;;46.88;18.73;;;6.40;99.90;;;;;;4980562;28;90180;-34
2022/03/27 07:05:41;;;;;;;40.17;18.80;;;6.40;99.90;;;;;;4979021;28;89636;-35
2022/03/27 07:08:12;;;;;;;51.83;19.83;;;6.30;99.90;;;;;;4978822;28;89889;-36
2022/03/27 07:10:39;;;;;;;45.70;18.30;;;6.40;99.90;;;;;;4980430;28;89621;-36
2022/03/27 07:13:10;;;;;;;41.83;19.92;;;6.60;99.90;;;;;;4979441;28;90277;-35
2022/03/27 07:15:37;;;;;;;37.60;17.80;;;6.50;99.90;;;;;;4961055;28;89819;-36
2022/03/27 07:18:03;;;;;;;45.78;18.80;;;6.50;99.90;;;;;;4979302;28;89932;-34
2022/03/27 07:20:30;;;;;;;57.63;21.63;;;6.50;99.90;;;;;;4979259;28;89712;-34
2022/03/27 07:22:58;;;;;;;51.40;21.25;;;6.50;99.90;;;;;;4978675;28;91135;-34
2022/03/27 07:25:26;;;;;;;45.45;22.92;;;6.60;99.90;;;;;;4978078;28;90592;-33
2022/03/27 07:27:52;;;;;;;44.03;20.88;;;6.70;99.90;;;;;;4979306;28;91044;-35
2022/03/27 07:30:18;;;;;;;52.67;21.30;;;6.60;99.90;;;;;;4979474;28;89622;-33
2022/03/27 07:32:44;;;;;;;39.67;20.85;;;6.70;99.90;;;;;;4978687;28;90193;-35
2022/03/27 07:35:11;;;;;;;51.88;23.08;;;6.80;99.90;;;;;;4979286;28;89555;-33
2022/03/27 07:37:38;;;;;;;44.03;21.80;;;6.80;99.90;;;;;;4979450;28;89481;-33
2022/03/27 07:40:08;;;;;;;50.33;23.42;;;6.80;99.90;;;;;;4978793;28;89277;-34
2022/03/27 07:42:42;;;;;;;61.83;25.17;;;6.90;99.90;;;;;;4978764;28;89748;-33
2022/03/27 07:45:11;;;;;;;47.75;20.10;;;6.90;99.90;;;;;;4978974;28;89700;-36
2022/03/27 07:47:37;;;;;;;51.15;23.75;;;7.00;99.90;;;;;;4978936;28;89869;-34
2022/03/27 07:50:04;;;;;;;49.65;20.95;;;7.10;99.90;;;;;;4978010;28;89100;-36
2022/03/27 07:52:30;;;;;;;61.03;21.73;;;7.20;99.90;;;;;;4961005;28;90354;-34
2022/03/27 07:54:56;;;;;;;44.72;20.73;;;7.10;99.90;;;;;;4960740;28;89843;-36
2022/03/27 07:57:22;;;;;;;57.40;20.38;;;7.20;99.90;;;;;;4978481;28;89738;-36
2022/03/27 07:59:48;;;;;;;36.95;18.88;;;7.40;99.90;;;;;;4978660;28;88620;-35
2022/03/27 08:02:14;;;;;;;46.38;17.90;;;7.50;99.90;;;;;;4979258;28;89003;-34
2022/03/27 08:04:40;;;;;;;40.85;15.10;;;7.30;99.90;;;;;;4977891;28;88830;-35
2022/03/27 08:07:06;;;;;;;31.10;15.80;;;7.40;99.90;;;;;;4978548;28;89991;-36
2022/03/27 08:09:31;;;;;;;50.28;15.02;;;7.80;99.90;;;;;;4978443;28;88986;-37
2022/03/27 08:11:57;;;;;;;57.40;16.33;;;7.60;99.90;;;;;;4978434;28;89041;-38
2022/03/27 08:14:28;;;;;;;34.20;14.40;;;7.50;99.90;;;;;;4978134;28;90708;-35
2022/03/27 08:16:54;;;;;;;43.75;13.05;;;7.40;99.90;;;;;;4978751;28;90879;-34
2022/03/27 08:19:20;;;;;;;34.15;12.80;;;7.40;99.90;;;;;;4977515;28;89665;-37
2022/03/27 08:21:46;;;;;;;58.90;14.50;;;7.40;99.90;;;;;;4978778;28;90161;-34
2022/03/27 08:24:11;;;;;;;37.50;13.88;;;7.60;99.90;;;;;;4977964;28;89422;-33
2022/03/27 08:29:29;;;;;;;37.92;13.88;;;7.70;99.90;;;;;;4978556;28;88180;-32
2022/03/27 08:31:56;;;;;;;41.42;14.02;;;8.40;99.90;;;;;;4978025;28;90170;-31
2022/03/27 08:34:25;;;;;;;42.35;12.55;;;9.20;99.90;;;;;;4978423;28;89466;-36
2022/03/27 08:36:51;;;;;;;42.55;15.27;;;9.20;99.90;;;;;;4980021;28;89782;-35
2022/03/27 08:39:18;;;;;;;55.17;13.93;;;9.20;99.90;;;;;;4981142;28;89736;-35
2022/03/27 08:41:44;;;;;;;37.55;13.57;;;9.10;99.90;;;;;;4963881;28;90238;-36
2022/03/27 08:44:12;;;;;;;45.90;14.15;;;9.10;99.90;;;;;;4981564;28;90379;-36
2022/03/27 08:46:40;;;;;;;27.42;11.75;;;8.70;99.90;;;;;;4981675;28;88328;-34
2022/03/27 08:49:39;;;;;;;44.80;14.33;;;8.60;99.90;;;;;;4982311;28;88686;-32
2022/03/27 08:52:34;;;;;;;47.13;14.23;;;9.00;99.90;;;;;;4982033;28;90387;-36
2022/03/27 08:55:07;;;;;;;39.03;14.57;;;9.40;99.90;;;;;;4961470;28;89703;-35
2022/03/27 08:57:57;;;;;;;47.50;15.82;;;9.70;99.90;;;;;;4981231;28;89880;-35
2022/03/27 09:00:25;;;;;;;40.80;13.35;;;9.60;99.90;;;;;;4982573;28;89343;-33
2022/03/27 09:02:51;;;;;;;42.70;16.67;;;9.80;99.90;;;;;;4981916;28;90318;-35
2022/03/27 09:05:17;;;;;;;48.85;16.48;;;10.20;99.90;;;;;;4980422;28;90968;-35
2022/03/27 09:07:42;;;;;;;42.85;15.18;;;10.40;99.90;;;;;;4980525;28;90928;-35
2022/03/27 09:10:10;;;;;;;44.33;15.27;;;10.10;99.90;;;;;;4993656;28;88275;-36
2022/03/27 09:12:36;;;;;;;35.83;13.03;;;10.10;99.90;;;;;;4998961;28;90036;-37
2022/03/27 09:15:07;;;;;;;35.03;13.13;;;10.30;99.90;;;;;;4999330;28;89918;-33
2022/03/27 09:17:32;;;;;;;42.40;13.57;;;10.10;99.90;;;;;;4998972;28;89717;-38
2022/03/27 09:19:58;;;;;;;30.80;12.13;;;10.00;99.90;;;;;;4998599;28;89285;-36
2022/03/27 09:22:31;;;;;;;33.83;13.20;;;10.00;99.90;;;;;;4999282;28;90091;-34
2022/03/27 09:25:03;;;;;;;32.58;12.73;;;10.10;99.90;;;;;;4988416;28;90466;-32
2022/03/27 09:27:37;;;;;;;26.92;12.63;;;10.50;99.90;;;;;;4990339;28;91674;-36
2022/03/27 09:30:09;;;;;;;35.03;13.48;;;10.50;99.90;;;;;;4997757;28;90046;-38
2022/03/27 09:32:39;;;;;;;41.13;13.88;;;10.40;99.90;;;;;;4981000;28;89213;-36
2022/03/27 09:35:09;;;;;;;46.88;14.88;;;10.40;99.90;;;;;;4977458;28;89710;-37
2022/03/27 09:37:38;;;;;;;43.40;13.40;;;10.70;99.90;;;;;;4978339;28;89785;-34
2022/03/27 09:40:05;;;;;;;32.13;11.35;;;10.50;99.90;;;;;;4960366;28;88543;-37
2022/03/27 09:42:30;;;;;;;35.08;12.35;;;10.80;99.90;;;;;;4978608;28;91232;-35
2022/03/27 09:45:28;;;;;;;31.80;11.15;;;11.20;99.90;;;;;;4977867;28;90200;-35
2022/03/27 09:48:07;;;;;;;30.48;12.48;;;10.90;99.90;;;;;;4954357;28;97433;-33
2022/03/27 09:50:33;;;;;;;34.85;13.27;;;11.00;99.90;;;;;;4978956;28;88603;-35
2022/03/27 09:53:28;;;;;;;29.00;11.35;;;11.50;99.90;;;;;;4978143;28;89809;-33
2022/03/27 09:55:59;;;;;;;34.58;12.25;;;11.30;99.90;;;;;;4977738;28;91300;-34
2022/03/27 09:58:43;;;;;;;35.13;11.02;;;11.10;99.90;;;;;;4977379;28;90347;-39
2022/03/27 10:01:29;;;;;;;32.60;12.57;;;11.90;99.90;;;;;;4978289;28;89516;-35
2022/03/27 10:04:03;;;;;;;33.45;11.10;;;11.90;99.90;;;;;;4816000;28;104674;-36
2022/03/27 10:06:31;;;;;;;33.75;11.32;;;11.80;99.90;;;;;;4977419;28;89491;-38
2022/03/27 10:08:59;;;;;;;36.42;10.77;;;11.70;99.90;;;;;;4978107;28;89651;-35
2022/03/27 10:11:25;;;;;;;31.37;11.90;;;12.10;99.90;;;;;;4960509;28;88717;-37
2022/03/27 10:13:55;;;;;;;24.00;11.07;;;11.90;99.90;;;;;;4977888;28;90423;-34
2022/03/27 10:16:25;;;;;;;37.88;11.95;;;11.70;99.90;;;;;;4977732;28;90386;-36
2022/03/27 10:18:59;;;;;;;25.60;10.18;;;11.70;99.90;;;;;;4976896;28;89523;-34
2022/03/27 10:21:26;;;;;;;31.75;12.20;;;11.70;99.90;;;;;;4977660;28;90720;-37
2022/03/27 10:24:05;;;;;;;30.00;11.00;;;11.90;99.90;;;;;;4977252;28;90237;-39
2022/03/27 10:26:32;;;;;;;36.20;12.23;;;12.00;99.90;;;;;;4976881;28;90554;-37
2022/03/27 10:29:01;;;;;;;26.90;11.43;;;12.30;99.90;;;;;;4977990;28;90498;-34
2022/03/27 10:31:27;;;;;;;30.17;11.63;;;11.80;99.90;;;;;;4977984;28;88451;-37
2022/03/27 10:33:55;;;;;;;33.47;11.10;;;11.90;99.90;;;;;;4977907;28;91518;-34
2022/03/27 10:36:34;;;;;;;28.08;10.27;;;12.00;99.90;;;;;;4977228;28;90300;-34
2022/03/27 10:39:08;;;;;;;43.33;11.40;;;12.30;99.90;;;;;;4978398;28;89680;-37
2022/03/27 10:41:42;;;;;;;33.42;10.70;;;12.30;99.90;;;;;;4977809;28;89512;-38
2022/03/27 10:44:39;;;;;;;27.70;8.88;;;12.40;99.90;;;;;;4977760;28;90704;-35
2022/03/27 10:47:20;;;;;;;29.27;8.25;;;12.30;99.90;;;;;;4977293;28;90381;-35
2022/03/27 10:50:01;;;;;;;33.53;9.80;;;12.00;99.90;;;;;;4978287;28;91345;-34
2022/03/27 10:52:27;;;;;;;25.23;8.20;;;12.20;99.90;;;;;;4978642;28;88970;-35
2022/03/27 10:55:02;;;;;;;26.80;10.40;;;11.90;99.90;;;;;;4977767;28;90398;-36
2022/03/27 10:57:46;;;;;;;24.20;9.98;;;12.30;99.90;;;;;;4977267;28;89656;-38
2022/03/27 11:00:13;;;;;;;30.80;9.13;;;12.50;99.90;;;;;;4976729;28;90608;-36
2022/03/27 11:02:46;;;;;;;21.05;9.77;;;12.60;99.90;;;;;;4977464;28;88163;-35
2022/03/27 11:05:44;;;;;;;25.55;9.88;;;13.00;99.90;;;;;;4977588;28;90163;-36
2022/03/27 11:08:18;;;;;;;19.70;8.60;;;12.50;99.90;;;;;;4907168;28;89805;-35
2022/03/27 11:10:49;;;;;;;23.55;9.80;;;12.70;99.90;;;;;;4977628;28;89287;-33
2022/03/27 11:13:33;;;;;;;21.23;7.95;;;12.60;99.90;;;;;;4977989;28;90532;-34
2022/03/27 11:16:12;;;;;;;25.75;8.25;;;12.70;99.90;;;;;;4977054;28;90361;-36
2022/03/27 11:18:40;;;;;;;27.55;9.70;;;12.80;99.90;;;;;;4977541;28;89724;-35
2022/03/27 11:21:07;;;;;;;28.42;9.23;;;13.10;99.90;;;;;;4977679;28;89847;-34
2022/03/27 11:23:38;;;;;;;25.60;6.30;;;13.20;99.90;;;;;;4977300;28;89592;-35
2022/03/27 11:26:27;;;;;;;25.42;9.27;;;13.30;93.00;;;;;;4977966;28;90317;-38
2022/03/27 11:28:59;;;;;;;32.92;8.18;;;13.30;90.60;;;;;;4965505;28;89239;-35
2022/03/27 11:31:31;;;;;;;24.70;7.65;;;13.40;88.80;;;;;;4977607;28;90109;-37
2022/03/27 11:34:08;;;;;;;21.08;8.45;;;13.10;87.50;;;;;;4977632;28;88379;-36
2022/03/27 11:36:36;;;;;;;21.30;8.27;;;13.50;93.30;;;;;;4977241;28;90702;-35
2022/03/27 11:39:27;;;;;;;15.77;7.13;;;13.80;91.80;;;;;;4977785;28;90547;-36
2022/03/27 11:41:53;;;;;;;24.00;8.98;;;13.90;90.10;;;;;;4976789;28;91188;-35
2022/03/27 11:47:11;;;;;;;20.15;7.43;;;13.60;78.90;;;;;;4977826;28;90267;-35
2022/03/27 11:49:39;;;;;;;13.60;8.03;;;13.90;89.70;;;;;;4977249;28;89564;-34
2022/03/27 11:52:19;;;;;;;25.85;8.95;;;13.70;76.00;;;;;;4976843;28;89674;-34
2022/03/27 11:54:47;;;;;;;22.92;8.23;;;13.60;90.10;;;;;;4959543;28;88230;-36
2022/03/27 11:57:13;;;;;;;15.60;7.20;;;13.80;80.90;;;;;;4977322;28;90701;-37
2022/03/27 11:59:57;;;;;;;15.45;7.10;;;13.90;72.20;;;;;;4958941;28;89694;-34
2022/03/27 12:02:42;;;;;;;21.92;6.65;;;13.80;72.50;;;;;;4959545;28;91174;-35
2022/03/27 12:05:08;;;;;;;22.95;6.60;;;14.40;69.40;;;;;;4976450;28;90132;-37
2022/03/27 12:07:55;;;;;;;24.65;7.72;;;14.20;66.00;;;;;;4976925;28;92508;-36
2022/03/27 12:10:21;;;;;;;21.30;6.90;;;14.10;67.50;;;;;;4980430;28;90041;-37
2022/03/27 12:13:05;;;;;;;13.77;6.65;;;14.20;69.40;;;;;;4983540;28;89502;-33
2022/03/27 12:15:40;;;;;;;23.08;7.28;;;14.00;67.40;;;;;;4983698;28;90020;-36
2022/03/27 12:18:06;;;;;;;12.57;6.20;;;14.10;75.20;;;;;;5019791;22;90374;-36
2022/03/27 12:20:42;;;;;;;18.48;6.55;;;14.10;68.70;;;;;;5003996;28;89715;-37
2022/03/27 12:23:18;;;;;;;21.38;6.38;;;14.30;66.70;;;;;;5003810;28;89059;-38
2022/03/27 12:25:44;;;;;;;17.50;7.18;;;14.10;65.10;;;;;;5003336;28;89345;-36
2022/03/27 12:30:54;;;;;;;19.38;5.45;;;14.10;64.40;;;;;;5002390;28;92583;-36
2022/03/27 12:33:23;;;;;;;14.20;6.30;;;13.80;62.30;;;;;;5003150;28;90190;-37
2022/03/27 12:36:10;;;;;;;20.58;8.27;;;13.90;66.70;;;;;;5001102;28;88728;-36
2022/03/27 12:38:36;;;;;;;16.90;6.03;;;14.30;72.20;;;;;;5003072;28;90052;-39
2022/03/27 12:41:02;;;;;;;16.55;6.13;;;14.60;71.40;;;;;;5003416;28;89781;-35
2022/03/27 12:43:28;;;;;;;21.55;8.52;;;14.10;63.60;;;;;;5002702;28;90423;-34
2022/03/27 12:45:55;;;;;;;12.40;6.65;;;14.40;68.50;;;;;;5003199;28;88817;-35
2022/03/27 12:48:25;;;;;;;18.20;5.97;;;14.20;66.50;;;;;;5003373;28;88773;-36
2022/03/27 12:50:53;;;;;;;18.50;6.65;;;14.50;68.10;;;;;;5002970;28;90175;-36
2022/03/27 12:53:19;;;;;;;14.60;5.55;;;14.60;64.80;;;;;;5002692;28;90163;-34
2022/03/27 12:55:49;;;;;;;14.52;5.32;;;14.70;63.70;;;;;;5001985;28;89516;-35